Time;durP1;ratioP1;P1;durP2;ratioP2;P2;SDS_P1;SDS_P2;PMS_P1;PMS_P2;Temp;Humidity;BMP_temperature;BMP_pressure;BME280_temperature;BME280_humidity;BME280_pressure;Samples;Min_cycle;Max_cycle;Signal;HPM_P1;HPM_P2
2023/04/12 00:00:51;;;;;;;;;;;;;;;;;;4975706;28;19972;-91
2023/04/12 00:03:20;;;;;;;;;;;;;;;;;;4959715;28;19921;-91
2023/04/12 00:05:47;;;;;;;;;;;;;;;;;;4960138;28;20305;-90
2023/04/12 00:08:13;;;;;;;;;;;;;;;;;;4975735;28;19932;-91
2023/04/12 00:10:39;;;;;;;;;;;;;;;;;;4959756;28;20296;-91
2023/04/12 00:13:05;;;;;;;;;;;;;;;;;;4959773;28;20346;-91
2023/04/12 00:15:31;;;;;;;;;;;;;;;;;;4959671;28;19922;-91
2023/04/12 00:17:57;;;;;;;;;;;;;;;;;;4975680;28;19992;-91
2023/04/12 00:20:26;;;;;;;;;;;;;;;;;;4959503;28;19941;-91
2023/04/12 00:22:52;;;;;;;;;;;;;;;;;;4959825;28;19961;-91
2023/04/12 00:25:18;;;;;;;;;;;;;;;;;;4959427;28;19969;-90
2023/04/12 00:27:44;;;;;;;;;;;;;;;;;;4959097;28;20015;-90
2023/04/12 00:30:10;;;;;;;;;;;;;;;;;;4959020;28;20373;-90
2023/04/12 00:32:36;;;;;;;;;;;;;;;;;;4975079;28;19941;-90
2023/04/12 00:35:02;;;;;;;;;;;;;;;;;;4959645;28;19926;-90
2023/04/12 00:37:28;;;;;;;;;;;;;;;;;;4958945;28;20383;-90
2023/04/12 00:39:54;;;;;;;;;;;;;;;;;;4975431;28;19921;-90
2023/04/12 00:42:20;;;;;;;;;;;;;;;;;;4959228;28;20385;-90
2023/04/12 00:44:46;;;;;;;;;;;;;;;;;;4963015;28;19922;-89
2023/04/12 00:47:12;;;;;;;;;;;;;;;;;;4978784;28;19926;-90
2023/04/12 00:49:38;;;;;;;;;;;;;;;;;;4962782;28;19922;-90
2023/04/12 00:52:04;;;;;;;;;;;;;;;;;;4963066;28;20389;-91
2023/04/12 00:54:31;;;;;;;;;;;;;;;;;;4963041;28;19972;-91
2023/04/12 00:56:57;;;;;;;;;;;;;;;;;;4962934;28;19967;-91
2023/04/12 00:59:23;;;;;;;;;;;;;;;;;;4962841;28;19922;-91
2023/04/12 01:01:49;;;;;;;;;;;;;;;;;;4963004;28;19926;-91
2023/04/12 01:04:15;;;;;;;;;;;;;;;;;;4978547;28;20015;-90
2023/04/12 01:06:40;;;;;;;;;;;;;;;;;;4962536;28;19921;-91
2023/04/12 01:09:07;;;;;;;;;;;;;;;;;;4962857;28;19926;-91
2023/04/12 01:11:33;;;;;;;;;;;;;;;;;;4962491;28;19953;-91
2023/04/12 01:13:58;;;;;;;;;;;;;;;;;;4978914;28;19922;-90
2023/04/12 01:16:25;;;;;;;;;;;;;;;;;;4962208;28;19925;-90
2023/04/12 01:18:51;;;;;;;;;;;;;;;;;;4962473;28;19922;-91
2023/04/12 01:21:17;;;;;;;;;;;;;;;;;;4962270;28;20266;-91
2023/04/12 01:23:43;;;;;;;;;;;;;;;;;;4962650;28;20397;-90
2023/04/12 01:26:09;;;;;;;;;;;;;;;;;;4962679;28;20289;-90
2023/04/12 01:28:35;;;;;;;;;;;;;;;;;;4962336;28;19922;-91
2023/04/12 01:31:01;;;;;;;;;;;;;;;;;;4979384;28;19925;-90
2023/04/12 01:33:30;;;;;;;;;;;;;;;;;;4978986;28;19922;-91
2023/04/12 01:35:56;;;;;;;;;;;;;;;;;;4962731;28;20001;-90
2023/04/12 01:38:22;;;;;;;;;;;;;;;;;;4962683;28;19980;-90
2023/04/12 01:40:48;;;;;;;;;;;;;;;;;;4962565;28;19922;-89
2023/04/12 01:43:17;;;;;;;;;;;;;;;;;;4962428;28;19922;-91
2023/04/12 01:45:42;;;;;;;;;;;;;;;;;;4962581;28;19925;-91
2023/04/12 01:48:08;;;;;;;;;;;;;;;;;;4962554;28;19964;-92
2023/04/12 01:50:34;;;;;;;;;;;;;;;;;;4962018;28;19926;-91
2023/04/12 01:53:01;;;;;;;;;;;;;;;;;;4962428;28;19922;-91
2023/04/12 01:55:27;;;;;;;;;;;;;;;;;;4961841;28;19997;-91
2023/04/12 01:57:53;;;;;;;;;;;;;;;;;;4962878;28;20012;-91
2023/04/12 02:00:19;;;;;;;;;;;;;;;;;;4962440;28;20301;-91
2023/04/12 02:02:45;;;;;;;;;;;;;;;;;;4978904;28;19929;-91
2023/04/12 02:05:11;;;;;;;;;;;;;;;;;;4963230;28;20017;-92
2023/04/12 02:07:37;;;;;;;;;;;;;;;;;;4962208;28;20013;-92
2023/04/12 02:10:03;;;;;;;;;;;;;;;;;;4961275;28;20308;-90
2023/04/12 02:12:29;;;;;;;;;;;;;;;;;;4961974;28;20337;-89
2023/04/12 02:14:56;;;;;;;;;;;;;;;;;;4961319;28;20289;-90
2023/04/12 02:17:21;;;;;;;;;;;;;;;;;;4960767;28;19926;-90
2023/04/12 02:19:47;;;;;;;;;;;;;;;;;;4961358;28;19922;-90
2023/04/12 02:22:13;;;;;;;;;;;;;;;;;;4977023;28;19922;-89
2023/04/12 02:24:40;;;;;;;;;;;;;;;;;;4960936;28;19921;-89
2023/04/12 02:27:06;;;;;;;;;;;;;;;;;;4961146;28;19922;-89
2023/04/12 02:29:32;;;;;;;;;;;;;;;;;;4977227;28;19976;-91
2023/04/12 02:31:58;;;;;;;;;;;;;;;;;;4977329;28;20414;-92
2023/04/12 02:34:24;;;;;;;;;;;;;;;;;;4960771;28;19922;-92
2023/04/12 02:36:50;;;;;;;;;;;;;;;;;;4977064;28;19972;-92
2023/04/12 02:39:17;;;;;;;;;;;;;;;;;;4961141;28;19977;-91
2023/04/12 02:41:43;;;;;;;;;;;;;;;;;;4960835;28;19929;-91
2023/04/12 02:44:09;;;;;;;;;;;;;;;;;;4961043;28;19921;-91
2023/04/12 02:46:35;;;;;;;;;;;;;;;;;;4960504;28;19925;-91
2023/04/12 02:49:01;;;;;;;;;;;;;;;;;;4960919;28;19946;-91
2023/04/12 02:51:27;;;;;;;;;;;;;;;;;;4960490;28;19952;-91
2023/04/12 02:53:53;;;;;;;;;;;;;;;;;;4960489;28;19976;-91
2023/04/12 02:56:20;;;;;;;;;;;;;;;;;;4960555;28;20301;-91
2023/04/12 02:58:46;;;;;;;;;;;;;;;;;;4960688;28;19929;-91
2023/04/12 03:01:13;;;;;;;;;;;;;;;;;;4959978;28;19926;-90
2023/04/12 03:03:39;;;;;;;;;;;;;;;;;;4960174;28;19922;-90
2023/04/12 03:06:05;;;;;;;;;;;;;;;;;;4959781;28;19932;-90
2023/04/12 03:08:31;;;;;;;;;;;;;;;;;;4959915;28;19921;-90
2023/04/12 03:10:57;;;;;;;;;;;;;;;;;;4960034;28;19926;-89
2023/04/12 03:13:23;;;;;;;;;;;;;;;;;;4976147;28;19969;-90
2023/04/12 03:15:48;;;;;;;;;;;;;;;;;;4959878;28;20297;-90
2023/04/12 03:18:15;;;;;;;;;;;;;;;;;;4959681;28;19930;-90
2023/04/12 03:20:42;;;;;;;;;;;;;;;;;;4959713;28;20157;-89
2023/04/12 03:23:08;;;;;;;;;;;;;;;;;;4976323;28;20332;-91
2023/04/12 03:25:35;;;;;;;;;;;;;;;;;;4976424;28;19976;-91
2023/04/12 03:28:01;;;;;;;;;;;;;;;;;;4960282;28;19958;-91
2023/04/12 03:30:27;;;;;;;;;;;;;;;;;;4960152;28;20032;-91
2023/04/12 03:32:53;;;;;;;;;;;;;;;;;;4960241;28;19922;-89
2023/04/12 03:35:19;;;;;;;;;;;;;;;;;;4960154;28;19922;-90
2023/04/12 03:37:45;;;;;;;;;;;;;;;;;;4959848;28;20380;-90
2023/04/12 03:40:12;;;;;;;;;;;;;;;;;;4975739;28;19922;-92
2023/04/12 03:42:38;;;;;;;;;;;;;;;;;;4960195;28;19945;-92
2023/04/12 03:45:03;;;;;;;;;;;;;;;;;;4976105;28;20377;-92
2023/04/12 03:47:32;;;;;;;;;;;;;;;;;;4976484;28;20160;-92
2023/04/12 03:50:00;;;;;;;;;;;;;;;;;;4960154;28;20012;-92
2023/04/12 03:52:26;;;;;;;;;;;;;;;;;;4959664;28;20377;-91
2023/04/12 03:54:52;;;;;;;;;;;;;;;;;;4959821;28;19930;-92
2023/04/12 03:57:18;;;;;;;;;;;;;;;;;;4959580;28;20030;-90
2023/04/12 03:59:44;;;;;;;;;;;;;;;;;;4959118;28;19922;-90
2023/04/12 04:02:10;;;;;;;;;;;;;;;;;;4959532;28;19972;-90
2023/04/12 04:04:36;;;;;;;;;;;;;;;;;;4959217;28;19921;-90
2023/04/12 04:07:02;;;;;;;;;;;;;;;;;;4959254;28;19926;-92
2023/04/12 04:09:29;;;;;;;;;;;;;;;;;;4975455;28;20277;-91
2023/04/12 04:11:55;;;;;;;;;;;;;;;;;;4959958;28;20017;-91
2023/04/12 04:14:21;;;;;;;;;;;;;;;;;;4959246;28;20341;-90
2023/04/12 04:16:47;;;;;;;;;;;;;;;;;;4958757;28;19926;-89
2023/04/12 04:19:13;;;;;;;;;;;;;;;;;;4977993;28;19921;-89
2023/04/12 04:21:39;;;;;;;;;;;;;;;;;;4963583;28;19929;-89
2023/04/12 04:24:05;;;;;;;;;;;;;;;;;;4963312;28;19943;-89
2023/04/12 04:26:32;;;;;;;;;;;;;;;;;;4963033;28;19929;-89
2023/04/12 04:29:00;;;;;;;;;;;;;;;;;;4962947;28;19922;-90
2023/04/12 04:31:26;;;;;;;;;;;;;;;;;;4963140;28;20005;-89
2023/04/12 04:33:52;;;;;;;;;;;;;;;;;;4963036;28;19980;-89
2023/04/12 04:36:18;;;;;;;;;;;;;;;;;;4963059;28;19977;-89
2023/04/12 04:38:44;;;;;;;;;;;;;;;;;;4978822;28;20381;-89
2023/04/12 04:41:11;;;;;;;;;;;;;;;;;;4962908;28;19922;-88
2023/04/12 04:43:38;;;;;;;;;;;;;;;;;;4962603;28;19929;-88
2023/04/12 04:46:04;;;;;;;;;;;;;;;;;;4978991;28;20266;-88
2023/04/12 04:48:30;;;;;;;;;;;;;;;;;;4978971;28;19976;-88
2023/04/12 04:50:56;;;;;;;;;;;;;;;;;;4962641;28;19929;-88
2023/04/12 04:53:22;;;;;;;;;;;;;;;;;;4978874;28;19926;-88
2023/04/12 04:55:48;;;;;;;;;;;;;;;;;;4962340;28;20007;-89
2023/04/12 04:58:14;;;;;;;;;;;;;;;;;;4962333;28;19922;-89
2023/04/12 05:00:43;;;;;;;;;;;;;;;;;;4962685;28;20082;-89
2023/04/12 05:03:09;;;;;;;;;;;;;;;;;;4962521;28;20366;-89
2023/04/12 05:05:35;;;;;;;;;;;;;;;;;;4962238;28;19922;-89
2023/04/12 05:08:01;;;;;;;;;;;;;;;;;;4962287;28;19958;-89
2023/04/12 05:10:27;;;;;;;;;;;;;;;;;;4978549;28;19926;-89
2023/04/12 05:12:53;;;;;;;;;;;;;;;;;;4962149;28;19925;-89
2023/04/12 05:15:20;;;;;;;;;;;;;;;;;;4962198;28;19925;-89
2023/04/12 05:17:46;;;;;;;;;;;;;;;;;;4977862;28;20008;-89
2023/04/12 05:20:11;;;;;;;;;;;;;;;;;;4978124;28;19975;-87
2023/04/12 05:22:37;;;;;;;;;;;;;;;;;;4978127;28;19922;-88
2023/04/12 05:25:03;;;;;;;;;;;;;;;;;;4978144;28;20300;-88
2023/04/12 05:27:29;;;;;;;;;;;;;;;;;;4961692;28;19926;-88
2023/04/12 05:29:55;;;;;;;;;;;;;;;;;;4977122;28;19980;-88
2023/04/12 05:32:21;;;;;;;;;;;;;;;;;;4977806;28;19922;-88
2023/04/12 05:34:47;;;;;;;;;;;;;;;;;;4977990;28;19922;-89
2023/04/12 05:37:14;;;;;;;;;;;;;;;;;;4977895;28;19937;-89
2023/04/12 05:39:40;;;;;;;;;;;;;;;;;;4978089;28;20476;-88
2023/04/12 05:42:06;;;;;;;;;;;;;;;;;;4978075;28;19922;-89
2023/04/12 05:44:31;;;;;;;;;;;;;;;;;;4977875;28;19926;-88
2023/04/12 05:46:57;;;;;;;;;;;;;;;;;;4977876;28;19929;-89
2023/04/12 05:49:23;;;;;;;;;;;;;;;;;;4961563;28;19944;-89
2023/04/12 05:51:49;;;;;;;;;;;;;;;;;;4961485;28;20262;-88
2023/04/12 05:54:19;;;;;;;;;;;;;;;;;;4961391;28;19925;-88
2023/04/12 05:56:45;;;;;;;;;;;;;;;;;;4961487;28;19922;-88
2023/04/12 05:59:12;;;;;;;;;;;;;;;;;;4961537;28;19929;-88
2023/04/12 06:01:41;;;;;;;;;;;;;;;;;;4961375;28;19922;-89
2023/04/12 06:04:07;;;;;;;;;;;;;;;;;;4961202;28;19921;-89
2023/04/12 06:06:33;;;;;;;;;;;;;;;;;;4977293;28;19921;-89
2023/04/12 06:08:59;;;;;;;;;;;;;;;;;;4961255;28;19922;-89
2023/04/12 06:11:25;;;;;;;;;;;;;;;;;;4977238;28;19925;-89
2023/04/12 06:13:51;;;;;;;;;;;;;;;;;;4961606;28;19922;-92
2023/04/12 06:16:17;;;;;;;;;;;;;;;;;;4961464;28;20361;-91
2023/04/12 06:18:46;;;;;;;;;;;;;;;;;;4962724;28;19990;-96
2023/04/12 06:43:22;;;;;;;;;;;;;;;;;;4976041;28;19949;-96
2023/04/12 06:51:45;;;;;;;;;;;;;;;;;;4900369;29;19927;-95
2023/04/12 06:54:11;;;;;;;;;;;;;;;;;;4884585;29;19923;-94
2023/04/12 06:56:38;;;;;;;;;;;;;;;;;;4912458;28;19922;-94
2023/04/12 06:59:04;;;;;;;;;;;;;;;;;;4957534;28;20369;-95
2023/04/12 07:01:30;;;;;;;;;;;;;;;;;;4959042;28;19929;-95
2023/04/12 07:04:20;;;;;;;;;;;;;;;;;;4902428;29;19927;-96
2023/04/12 07:06:55;;;;;;;;;;;;;;;;;;4968703;28;19922;-96
2023/04/12 07:09:31;;;;;;;;;;;;;;;;;;4962736;28;19922;-96
2023/04/12 07:12:01;;;;;;;;;;;;;;;;;;4962183;28;19980;-96
2023/04/12 07:14:54;;;;;;;;;;;;;;;;;;4967542;28;20427;-93
2023/04/12 07:17:20;;;;;;;;;;;;;;;;;;4937488;29;20013;-93
2023/04/12 07:19:47;;;;;;;;;;;;;;;;;;4940423;29;19958;-95
2023/04/12 07:22:33;;;;;;;;;;;;;;;;;;;;;
2023/04/12 07:25:11;;;;;;;;;;;;;;;;;;4941132;29;19930;-96
2023/04/12 07:27:58;;;;;;;;;;;;;;;;;;4959734;29;19922;-95
2023/04/12 07:30:25;;;;;;;;;;;;;;;;;;4938935;29;20013;-96
2023/04/12 07:33:13;;;;;;;;;;;;;;;;;;4940713;29;20122;-94
2023/04/12 07:35:39;;;;;;;;;;;;;;;;;;4953352;29;20390;-94
2023/04/12 08:03:24;;;;;;;;;;;;;;;;;;4992513;28;20016;-96
2023/04/12 08:12:20;;;;;;;;;;;;;;;;;;4946505;28;20076;-96
2023/04/12 08:18:00;;;;;;;;;;;;;;;;;;4940639;29;19943;-95
2023/04/12 08:32:31;;;;;;;;;;;;;;;;;;5069483;23;20273;-96
2023/04/12 08:35:01;;;;;;;;;;;;;;;;;;4962697;28;20012;-96
2023/04/12 08:37:30;;;;;;;;;;;;;;;;;;4942747;28;20012;-95
2023/04/12 08:39:56;;;;;;;;;;;;;;;;;;4956114;28;20009;-95
2023/04/12 08:42:22;;;;;;;;;;;;;;;;;;4956923;28;19930;-96
2023/04/12 08:44:52;;;;;;;;;;;;;;;;;;4974094;28;19925;-96
2023/04/12 08:47:18;;;;;;;;;;;;;;;;;;5165635;23;19961;-95
2023/04/12 08:50:12;;;;;;;;;;;;;;;;;;;;;
2023/04/12 08:52:49;;;;;;;;;;;;;;;;;;;;;
2023/04/12 08:55:17;;;;;;;;;;;;;;;;;;4955987;28;19929;-96
2023/04/12 08:57:49;;;;;;;;;;;;;;;;;;4952919;29;20017;-96
2023/04/12 09:00:15;;;;;;;;;;;;;;;;;;4936834;29;19929;-96
2023/04/12 09:02:45;;;;;;;;;;;;;;;;;;4937815;29;19923;-95
2023/04/12 09:05:13;;;;;;;;;;;;;;;;;;4948755;28;20120;-96
2023/04/12 09:07:38;;;;;;;;;;;;;;;;;;4942649;29;20021;-94
2023/04/12 09:10:04;;;;;;;;;;;;;;;;;;4940259;29;20026;-96
2023/04/12 09:12:30;;;;;;;;;;;;;;;;;;4950933;29;19962;-95
2023/04/12 09:25:32;;;;;;;;;;;;;;;;;;5486789;23;20376;-95
2023/04/12 09:27:58;;;;;;;;;;;;;;;;;;4999649;28;20358;-95
2023/04/12 09:30:24;;;;;;;;;;;;;;;;;;5006423;28;19932;-93
2023/04/12 09:56:44;;;;;;;;;;;;;;;;;;5368840;23;19925;-94
2023/04/12 10:15:11;;;;;;;;;;;;;;;;;;5743366;23;19988;-96
2023/04/12 10:17:47;;;;;;;;;;;;;;;;;;4958690;29;19922;-94
2023/04/12 10:55:12;;;;;;;;;;;;;;;;;;5046005;23;19930;-93
2023/04/12 10:57:56;;;;;;;;;;;;;;;;;;4979663;28;20407;-94
2023/04/12 11:03:45;;;;;;;;;;;;;;;;;;4961084;29;19949;-96
2023/04/12 11:06:19;;;;;;;;;;;;;;;;;;4931046;28;19979;-95
2023/04/12 11:32:20;;;;;;;;;;;;;;;;;;5536323;23;19961;-91
2023/04/12 11:34:49;;;;;;;;;;;;;;;;;;4996777;28;19951;-94
2023/04/12 11:53:09;;;;;;;;;;;;;;;;;;5869757;22;19926;-95
2023/04/12 11:55:38;;;;;;;;;;;;;;;;;;4984966;28;19933;-93
2023/04/12 12:29:13;;;;;;;;;;;;;;;;;;6106222;23;19975;-93
2023/04/12 14:03:58;;;;;;;;;;;;;;;;;;4992605;28;19948;-96
2023/04/12 14:48:28;;;;;;;;;;;;;;;;;;5818033;23;19913;-96
2023/04/12 14:58:50;;;;;;;;;;;;;;;;;;5430468;23;19925;-96
2023/04/12 15:17:34;;;;;;;;;;;;;;;;;;5017918;23;19971;-95
2023/04/12 15:41:59;;;;;;;;;;;;;;;;;;5378001;23;19951;-94
2023/04/12 15:44:30;;;;;;;;;;;;;;;;;;4979944;28;20368;-91
2023/04/12 15:46:56;;;;;;;;;;;;;;;;;;4964217;28;19922;-93
2023/04/12 15:49:24;;;;;;;;;;;;;;;;;;4975860;28;19933;-93
2023/04/12 15:51:51;;;;;;;;;;;;;;;;;;4975883;28;20332;-92
2023/04/12 15:54:17;;;;;;;;;;;;;;;;;;4975701;28;19944;-92
2023/04/12 15:56:44;;;;;;;;;;;;;;;;;;4976091;28;19921;-91
2023/04/12 15:59:10;;;;;;;;;;;;;;;;;;4975741;28;19922;-91
2023/04/12 16:01:36;;;;;;;;;;;;;;;;;;4976048;28;20400;-92
2023/04/12 16:04:03;;;;;;;;;;;;;;;;;;4976051;28;20403;-92
2023/04/12 16:06:33;;;;;;;;;;;;;;;;;;4975758;28;19944;-92
2023/04/12 16:29:44;;;;;;;;;;;;;;;;;;5907380;23;19932;-92
2023/04/12 16:32:10;;;;;;;;;;;;;;;;;;4978788;28;20067;-91
2023/04/12 16:34:36;;;;;;;;;;;;;;;;;;4978231;28;20390;-93
2023/04/12 16:37:03;;;;;;;;;;;;;;;;;;4979827;28;19972;-93
2023/04/12 16:39:31;;;;;;;;;;;;;;;;;;4959376;28;19922;-92
2023/04/12 16:42:01;;;;;;;;;;;;;;;;;;4958789;28;20226;-94
2023/04/12 16:44:27;;;;;;;;;;;;;;;;;;4959374;28;20423;-94
2023/04/12 16:46:53;;;;;;;;;;;;;;;;;;4975337;28;19922;-92
2023/04/12 16:49:21;;;;;;;;;;;;;;;;;;4975400;28;20339;-94
2023/04/12 16:51:47;;;;;;;;;;;;;;;;;;4975374;28;20325;-95
2023/04/12 16:54:13;;;;;;;;;;;;;;;;;;4975605;28;19922;-94
2023/04/12 16:59:43;;;;;;;;;;;;;;;;;;4993081;28;20013;-91
2023/04/12 17:02:10;;;;;;;;;;;;;;;;;;4974850;28;19921;-92
2023/04/12 17:04:36;;;;;;;;;;;;;;;;;;4974836;28;19957;-91
2023/04/12 17:07:02;;;;;;;;;;;;;;;;;;4973761;28;19922;-91
2023/04/12 17:09:28;;;;;;;;;;;;;;;;;;4973987;28;20392;-93
2023/04/12 17:11:55;;;;;;;;;;;;;;;;;;4955717;28;19930;-93
2023/04/12 17:14:21;;;;;;;;;;;;;;;;;;4955952;28;20349;-92
2023/04/12 17:19:58;;;;;;;;;;;;;;;;;;4968779;28;19930;-92
2023/04/12 17:27:46;;;;;;;;;;;;;;;;;;;;;
2023/04/12 17:30:22;;;;;;;;;;;;;;;;;;4995547;28;19922;-96
2023/04/12 18:02:06;;;;;;;;;;;;;;;;;;5950697;23;19953;-94
2023/04/12 18:04:34;;;;;;;;;;;;;;;;;;4981832;28;19921;-95
2023/04/12 18:43:24;;;;;;;;;;;;;;;;;;5575452;23;19926;-93
2023/04/12 18:45:50;;;;;;;;;;;;;;;;;;4982531;28;19929;-94
2023/04/12 19:03:53;;;;;;;;;;;;;;;;;;5170818;23;19940;-96
2023/04/12 19:06:19;;;;;;;;;;;;;;;;;;4998022;28;20489;-95
2023/04/12 19:08:47;;;;;;;;;;;;;;;;;;4983922;28;19925;-94
2023/04/12 19:11:15;;;;;;;;;;;;;;;;;;4982298;28;19929;-94
2023/04/12 19:13:41;;;;;;;;;;;;;;;;;;5002793;28;20280;-95
2023/04/12 19:16:07;;;;;;;;;;;;;;;;;;4988045;28;19921;-93
2023/04/12 19:18:33;;;;;;;;;;;;;;;;;;4999511;28;19922;-95
2023/04/12 19:20:59;;;;;;;;;;;;;;;;;;4999453;28;19921;-94
2023/04/12 19:23:26;;;;;;;;;;;;;;;;;;4997012;28;19952;-94
2023/04/12 19:25:57;;;;;;;;;;;;;;;;;;4981720;28;19956;-94
2023/04/12 19:28:28;;;;;;;;;;;;;;;;;;4982254;28;20337;-96
2023/04/12 19:30:54;;;;;;;;;;;;;;;;;;5009724;28;20389;-94
2023/04/12 19:33:20;;;;;;;;;;;;;;;;;;5008935;28;19933;-93
2023/04/12 19:35:48;;;;;;;;;;;;;;;;;;4980291;28;19944;-95
2023/04/12 19:38:14;;;;;;;;;;;;;;;;;;5008750;28;20351;-93
2023/04/12 19:41:01;;;;;;;;;;;;;;;;;;5001846;28;19921;-96
2023/04/12 19:43:46;;;;;;;;;;;;;;;;;;4996767;28;19923;-96
2023/04/12 19:46:12;;;;;;;;;;;;;;;;;;4982631;28;19922;-95
2023/04/12 19:48:38;;;;;;;;;;;;;;;;;;4980089;28;19932;-94
2023/04/12 19:51:04;;;;;;;;;;;;;;;;;;4987525;28;19930;-93
2023/04/12 19:53:31;;;;;;;;;;;;;;;;;;4979969;28;19971;-94
2023/04/12 19:55:58;;;;;;;;;;;;;;;;;;4982321;28;19921;-95
2023/04/12 19:58:25;;;;;;;;;;;;;;;;;;4999580;28;19921;-95
2023/04/12 20:00:51;;;;;;;;;;;;;;;;;;5000903;28;19922;-93
2023/04/12 20:03:17;;;;;;;;;;;;;;;;;;4985778;28;20372;-94
2023/04/12 20:05:56;;;;;;;;;;;;;;;;;;;;;
2023/04/12 20:08:23;;;;;;;;;;;;;;;;;;4996356;28;19921;-94
2023/04/12 20:10:49;;;;;;;;;;;;;;;;;;4980600;28;19980;-93
2023/04/12 20:13:15;;;;;;;;;;;;;;;;;;4999006;28;19932;-96
2023/04/12 20:26:16;;;;;;;;;;;;;;;;;;5211996;23;19925;-96
2023/04/12 20:31:38;;;;;;;;;;;;;;;;;;5877573;23;19921;-93
2023/04/12 20:34:05;;;;;;;;;;;;;;;;;;5002694;28;19957;-91
2023/04/12 20:36:34;;;;;;;;;;;;;;;;;;4987141;28;19928;-92
2023/04/12 20:39:00;;;;;;;;;;;;;;;;;;4994885;28;19976;-93
2023/04/12 20:41:27;;;;;;;;;;;;;;;;;;4995124;28;19925;-93
2023/04/12 20:43:52;;;;;;;;;;;;;;;;;;4994810;28;19922;-93
2023/04/12 20:46:25;;;;;;;;;;;;;;;;;;4995227;28;19932;-93
2023/04/12 20:48:54;;;;;;;;;;;;;;;;;;4995117;28;19995;-93
2023/04/12 20:51:21;;;;;;;;;;;;;;;;;;4995215;28;19925;-93
2023/04/12 20:53:47;;;;;;;;;;;;;;;;;;4994584;28;19975;-93
2023/04/12 20:56:13;;;;;;;;;;;;;;;;;;4994505;28;20016;-93
2023/04/12 20:58:39;;;;;;;;;;;;;;;;;;4995193;28;19921;-94
2023/04/12 21:01:06;;;;;;;;;;;;;;;;;;4998097;28;20071;-95
2023/04/12 21:03:32;;;;;;;;;;;;;;;;;;4998567;28;19932;-92
2023/04/12 21:05:59;;;;;;;;;;;;;;;;;;4998594;28;19922;-92
2023/04/12 21:08:24;;;;;;;;;;;;;;;;;;4998432;28;19976;-92
2023/04/12 21:10:51;;;;;;;;;;;;;;;;;;4998181;28;19926;-92
2023/04/12 21:13:20;;;;;;;;;;;;;;;;;;4998170;28;19929;-91
2023/04/12 21:15:47;;;;;;;;;;;;;;;;;;4998345;28;19931;-92
2023/04/12 21:18:13;;;;;;;;;;;;;;;;;;4998445;28;20277;-92
2023/04/12 21:20:39;;;;;;;;;;;;;;;;;;4998150;28;19928;-91
2023/04/12 21:23:08;;;;;;;;;;;;;;;;;;4998238;28;19929;-92
2023/04/12 21:25:34;;;;;;;;;;;;;;;;;;4998133;28;19925;-92
2023/04/12 21:28:00;;;;;;;;;;;;;;;;;;4998628;28;20032;-94
2023/04/12 21:30:26;;;;;;;;;;;;;;;;;;4998763;28;20043;-94
2023/04/12 21:32:52;;;;;;;;;;;;;;;;;;4985562;28;19944;-94
2023/04/12 21:35:19;;;;;;;;;;;;;;;;;;4978672;28;20397;-94
2023/04/12 21:37:45;;;;;;;;;;;;;;;;;;4978975;28;19926;-94
2023/04/12 21:40:12;;;;;;;;;;;;;;;;;;4978736;28;19928;-93
2023/04/12 21:42:38;;;;;;;;;;;;;;;;;;4978669;28;19926;-93
2023/04/12 21:45:04;;;;;;;;;;;;;;;;;;4978468;28;20428;-93
2023/04/12 21:47:30;;;;;;;;;;;;;;;;;;4977993;28;19933;-93
2023/04/12 21:49:57;;;;;;;;;;;;;;;;;;4978616;28;19926;-93
2023/04/12 21:52:23;;;;;;;;;;;;;;;;;;4978316;28;19926;-94
2023/04/12 21:54:49;;;;;;;;;;;;;;;;;;4994527;28;19944;-94
2023/04/12 21:57:15;;;;;;;;;;;;;;;;;;4978662;28;20012;-93
2023/04/12 21:59:41;;;;;;;;;;;;;;;;;;4978806;28;20284;-94
2023/04/12 22:02:07;;;;;;;;;;;;;;;;;;4978494;28;19941;-93
2023/04/12 22:04:33;;;;;;;;;;;;;;;;;;4978800;28;19947;-93
2023/04/12 22:07:02;;;;;;;;;;;;;;;;;;4978356;28;19990;-94
2023/04/12 22:09:28;;;;;;;;;;;;;;;;;;4978799;28;19925;-93
2023/04/12 22:11:55;;;;;;;;;;;;;;;;;;4977518;28;20388;-94
2023/04/12 22:14:22;;;;;;;;;;;;;;;;;;4978279;28;19922;-93
2023/04/12 22:16:48;;;;;;;;;;;;;;;;;;4978141;28;20333;-94
2023/04/12 22:19:15;;;;;;;;;;;;;;;;;;4978031;28;20056;-94
2023/04/12 22:21:41;;;;;;;;;;;;;;;;;;4978048;28;19977;-94
2023/04/12 22:24:07;;;;;;;;;;;;;;;;;;4977702;28;19933;-94
2023/04/12 22:26:33;;;;;;;;;;;;;;;;;;4977937;28;19921;-93
2023/04/12 22:28:59;;;;;;;;;;;;;;;;;;4978254;28;19922;-93
2023/04/12 22:31:25;;;;;;;;;;;;;;;;;;4978690;28;19933;-94
2023/04/12 22:33:54;;;;;;;;;;;;;;;;;;4997925;28;19986;-93
2023/04/12 22:36:20;;;;;;;;;;;;;;;;;;4997234;28;20383;-94
2023/04/12 22:38:46;;;;;;;;;;;;;;;;;;4996952;28;20004;-93
2023/04/12 22:41:12;;;;;;;;;;;;;;;;;;4997195;28;19972;-93
2023/04/12 22:43:41;;;;;;;;;;;;;;;;;;4997488;28;19921;-94
2023/04/12 22:46:07;;;;;;;;;;;;;;;;;;4999416;28;20284;-93
2023/04/12 22:48:33;;;;;;;;;;;;;;;;;;4997579;28;19986;-93
2023/04/12 22:50:59;;;;;;;;;;;;;;;;;;4997213;28;19922;-93
2023/04/12 22:53:25;;;;;;;;;;;;;;;;;;4997154;28;19932;-93
2023/04/12 22:55:51;;;;;;;;;;;;;;;;;;4995910;28;19921;-94
2023/04/12 22:58:18;;;;;;;;;;;;;;;;;;4997189;28;19975;-93
2023/04/12 23:00:44;;;;;;;;;;;;;;;;;;4996503;28;19921;-93
2023/04/12 23:03:10;;;;;;;;;;;;;;;;;;4996380;28;19921;-94
2023/04/12 23:05:36;;;;;;;;;;;;;;;;;;4996379;28;19928;-93
2023/04/12 23:08:02;;;;;;;;;;;;;;;;;;4997048;28;20039;-93
2023/04/12 23:10:28;;;;;;;;;;;;;;;;;;4996563;28;20265;-93
2023/04/12 23:12:54;;;;;;;;;;;;;;;;;;4996890;28;19925;-93
2023/04/12 23:15:20;;;;;;;;;;;;;;;;;;4996741;28;19925;-94
2023/04/12 23:17:48;;;;;;;;;;;;;;;;;;4996397;28;20348;-94
2023/04/12 23:20:15;;;;;;;;;;;;;;;;;;4996299;28;19968;-94
2023/04/12 23:22:53;;;;;;;;;;;;;;;;;;4996530;28;19922;-94
2023/04/12 23:25:19;;;;;;;;;;;;;;;;;;4995694;28;19925;-94
2023/04/12 23:27:45;;;;;;;;;;;;;;;;;;4996419;28;20372;-94
2023/04/12 23:30:11;;;;;;;;;;;;;;;;;;4996272;28;19921;-93
2023/04/12 23:32:40;;;;;;;;;;;;;;;;;;4984126;28;19929;-93
2023/04/12 23:35:06;;;;;;;;;;;;;;;;;;4976393;28;19983;-94
2023/04/12 23:37:32;;;;;;;;;;;;;;;;;;4976820;28;19973;-94
2023/04/12 23:40:04;;;;;;;;;;;;;;;;;;4976835;28;19922;-94
2023/04/12 23:42:30;;;;;;;;;;;;;;;;;;4977155;28;19922;-94
2023/04/12 23:44:56;;;;;;;;;;;;;;;;;;4976709;28;19926;-94
2023/04/12 23:47:22;;;;;;;;;;;;;;;;;;4976490;28;19921;-93
2023/04/12 23:49:48;;;;;;;;;;;;;;;;;;4976901;28;19972;-93
2023/04/12 23:52:16;;;;;;;;;;;;;;;;;;4992205;28;19926;-92
2023/04/12 23:54:44;;;;;;;;;;;;;;;;;;4975865;28;22861;-92
2023/04/12 23:57:11;;;;;;;;;;;;;;;;;;4991625;28;20357;-93
2023/04/12 23:59:40;;;;;;;;;;;;;;;;;;4975668;28;19929;-92
